E16 weather

San Martin Airport
San Martin, California, United States

Public forecast

Using degrees Fahrenheit for public forecast. Weather courtesy of forecast.io.

Current aviation weather report (METAR) for San Martin Airport

Retrieved UTC (0 seconds ago):

Closest aviation forecast (TAF) to San Martin Airport

Closest forecast is Norman Y. Mineta San Jose International Airport, 23.2 nm (42.9 km) NW. Retrieved 2019/10/17 06:24 UTC (5 hours ago):

TAF KSJC 170521Z 1706/1806 23005KT P6SM FEW040 BKN200 FM170800 15006KT P6SM VCSH SCT025 BKN050 FM171300 VRB06KT P6SM SCT025 BKN050 TEMPO 1713/1716 BKN025 FM171900 31010KT P6SM SCT050 FM180400 25004KT P6SM SCT040